createdAt,value
2019-04-27T00:01:33.687Z,21.69
2019-04-27T00:04:00.300Z,21.66
2019-04-27T00:06:26.873Z,21.60
2019-04-27T00:08:53.608Z,21.55
2019-04-27T00:11:20.242Z,21.50
2019-04-27T00:13:46.855Z,21.45
2019-04-27T00:16:13.533Z,21.41
2019-04-27T00:18:40.203Z,21.37
2019-04-27T00:21:06.807Z,21.33
2019-04-27T00:23:34.037Z,21.30
2019-04-27T00:26:00.795Z,21.27
2019-04-27T00:28:27.451Z,21.25
2019-04-27T00:30:54.067Z,21.23
2019-04-27T00:33:20.648Z,21.20
2019-04-27T00:35:47.242Z,21.18
2019-04-27T00:38:13.844Z,21.15
2019-04-27T00:40:40.456Z,21.12
2019-04-27T00:43:07.048Z,21.08
2019-04-27T00:45:33.654Z,21.05
2019-04-27T00:48:00.229Z,21.01
2019-04-27T00:50:26.824Z,20.96
2019-04-27T00:52:53.409Z,20.92
2019-04-27T00:55:20.016Z,20.87
2019-04-27T00:57:46.592Z,20.83
2019-04-27T01:00:13.508Z,20.79
2019-04-27T01:02:40.152Z,20.74
2019-04-27T01:05:06.746Z,20.69
2019-04-27T01:07:33.473Z,20.62
2019-04-27T01:10:00.110Z,20.58
2019-04-27T01:12:26.678Z,20.52
2019-04-27T01:14:53.607Z,20.47
2019-04-27T01:17:20.259Z,20.39
2019-04-27T01:19:46.836Z,20.32
2019-04-27T01:22:13.444Z,20.26
2019-04-27T01:24:40.013Z,20.19
2019-04-27T01:27:06.629Z,20.14
2019-04-27T01:29:33.202Z,20.09
2019-04-27T01:31:59.790Z,20.03
2019-04-27T01:34:26.371Z,20.01
2019-04-27T01:36:52.970Z,19.98
2019-04-27T01:39:19.540Z,19.92
2019-04-27T01:41:46.157Z,19.90
2019-04-27T01:44:12.734Z,19.87
2019-04-27T01:46:39.702Z,19.86
2019-04-27T01:49:06.397Z,19.84
2019-04-27T01:51:33.015Z,19.83
2019-04-27T01:53:59.594Z,19.83
2019-04-27T01:56:26.210Z,19.83
2019-04-27T01:58:52.791Z,19.79
2019-04-27T02:01:19.415Z,19.75
2019-04-27T02:03:45.984Z,19.72
2019-04-27T02:06:12.586Z,19.69
2019-04-27T02:08:40.344Z,19.66
2019-04-27T02:11:07.049Z,19.64
2019-04-27T02:13:33.618Z,19.60
2019-04-27T02:16:00.234Z,19.57
2019-04-27T02:18:35.621Z,19.56
2019-04-27T02:20:55.160Z,19.52
2019-04-27T02:23:21.752Z,19.50
2019-04-27T02:25:49.684Z,19.47
2019-04-27T02:28:16.511Z,19.44
2019-04-27T02:30:43.102Z,19.42
2019-04-27T02:33:12.657Z,19.39
2019-04-27T02:35:39.113Z,19.37
2019-04-27T02:38:06.307Z,19.35
2019-04-27T02:40:32.892Z,19.33
2019-04-27T02:43:00.055Z,19.32
2019-04-27T02:45:26.672Z,19.32
2019-04-27T02:47:53.268Z,19.30
2019-04-27T02:50:19.850Z,19.28
2019-04-27T02:52:46.449Z,19.25
2019-04-27T02:55:13.029Z,19.22
2019-04-27T02:57:40.006Z,19.21
2019-04-27T03:00:06.646Z,19.18
2019-04-27T03:02:33.246Z,19.13
2019-04-27T03:05:00.628Z,19.07
2019-04-27T03:07:29.799Z,19.00
2019-04-27T03:09:55.815Z,18.91
2019-04-27T03:12:22.428Z,18.81
2019-04-27T03:14:50.629Z,18.68
2019-04-27T03:17:20.018Z,18.56
2019-04-27T03:19:45.691Z,18.46
2019-04-27T03:22:12.290Z,18.39
2019-04-27T03:24:39.424Z,18.31
2019-04-27T03:27:06.183Z,18.27
2019-04-27T03:29:32.793Z,18.23
2019-04-27T03:32:01.911Z,18.20
2019-04-27T03:34:31.988Z,18.19
2019-04-27T03:36:56.002Z,18.21
2019-04-27T03:39:22.608Z,18.25
2019-04-27T03:41:52.287Z,18.30
2019-04-27T03:44:19.196Z,18.38
2019-04-27T03:46:45.975Z,18.45
2019-04-27T03:49:27.981Z,18.55
2019-04-27T03:51:40.930Z,18.63
2019-04-27T03:54:07.595Z,18.71
2019-04-27T03:56:34.167Z,18.79
2019-04-27T03:59:00.777Z,18.86
2019-04-27T04:01:27.356Z,18.92
2019-04-27T04:03:53.949Z,18.99
2019-04-27T04:06:20.531Z,19.05
2019-04-27T04:08:49.866Z,19.12
2019-04-27T04:11:15.431Z,19.18
2019-04-27T04:13:42.032Z,19.21
2019-04-27T04:16:10.732Z,19.23
2019-04-27T04:18:36.947Z,19.24
2019-04-27T04:21:03.528Z,19.26
2019-04-27T04:23:30.203Z,19.32
2019-04-27T04:25:59.508Z,19.35
2019-04-27T04:28:25.197Z,19.38
2019-04-27T04:30:51.798Z,19.39
2019-04-27T04:33:20.581Z,19.39
2019-04-27T04:35:46.693Z,19.37
2019-04-27T04:38:13.264Z,19.37
2019-04-27T04:40:40.215Z,19.38
2019-04-27T04:43:06.917Z,19.36
2019-04-27T04:45:33.520Z,19.36
2019-04-27T04:48:00.112Z,19.37
2019-04-27T04:50:26.827Z,19.40
2019-04-27T04:52:53.404Z,19.43
2019-04-27T04:55:20.562Z,19.48
2019-04-27T04:57:49.348Z,19.52
2019-04-27T05:00:15.615Z,19.54
2019-04-27T05:02:42.270Z,19.57
2019-04-27T05:05:09.391Z,19.59
2019-04-27T05:07:36.131Z,19.63
2019-04-27T05:10:02.714Z,19.67
2019-04-27T05:12:29.337Z,19.69
2019-04-27T05:14:55.946Z,19.67
2019-04-27T05:17:22.523Z,19.66
2019-04-27T05:19:49.224Z,19.62
2019-04-27T05:22:15.781Z,19.59
2019-04-27T05:24:42.403Z,19.56
2019-04-27T05:27:09.301Z,19.53
2019-04-27T05:29:36.027Z,19.50
2019-04-27T05:32:02.641Z,19.50
2019-04-27T05:34:29.533Z,19.49
2019-04-27T05:36:56.305Z,19.48
2019-04-27T05:39:25.060Z,19.46
2019-04-27T05:41:51.192Z,19.42
2019-04-27T05:44:19.061Z,19.37
2019-04-27T05:46:46.093Z,19.28
2019-04-27T05:49:12.668Z,19.21
2019-04-27T05:51:41.778Z,19.12
2019-04-27T05:54:09.072Z,19.04
2019-04-27T05:56:35.835Z,18.95
2019-04-27T05:59:02.413Z,18.88
2019-04-27T06:01:29.681Z,18.79
2019-04-27T06:03:56.384Z,18.70
2019-04-27T06:06:23.002Z,18.63
2019-04-27T06:08:49.629Z,18.60
2019-04-27T06:11:16.262Z,18.56
2019-04-27T06:13:42.828Z,18.55
2019-04-27T06:16:09.596Z,18.52
2019-04-27T06:18:36.136Z,18.49
2019-04-27T06:21:02.731Z,18.45
2019-04-27T06:23:29.307Z,18.42
2019-04-27T06:25:55.903Z,18.42
2019-04-27T06:28:22.472Z,18.44
2019-04-27T06:30:49.267Z,18.45
2019-04-27T06:33:28.026Z,18.48
2019-04-27T06:35:44.246Z,18.49
2019-04-27T06:38:11.597Z,18.46
2019-04-27T06:40:39.157Z,18.46
2019-04-27T06:43:05.885Z,18.46
2019-04-27T06:45:32.454Z,18.44
2019-04-27T06:47:59.557Z,18.40
2019-04-27T06:50:26.333Z,18.36
2019-04-27T06:52:52.944Z,18.31
2019-04-27T06:55:19.530Z,18.27
2019-04-27T06:57:46.126Z,18.21
2019-04-27T07:00:12.709Z,18.16
2019-04-27T07:02:40.340Z,18.12
2019-04-27T07:05:08.815Z,18.08
2019-04-27T07:07:35.273Z,18.09
2019-04-27T07:10:01.845Z,18.07
2019-04-27T07:12:28.939Z,18.06
2019-04-27T07:14:55.675Z,18.05
2019-04-27T07:17:22.276Z,18.01
2019-04-27T07:19:49.710Z,17.94
2019-04-27T07:22:16.439Z,17.86
2019-04-27T07:24:43.013Z,17.78
2019-04-27T07:27:11.177Z,17.72
2019-04-27T07:29:39.148Z,17.67
2019-04-27T07:32:06.077Z,17.62
2019-04-27T07:34:32.652Z,17.54
2019-04-27T07:36:59.877Z,17.49
2019-04-27T07:39:26.520Z,17.45
2019-04-27T07:41:53.120Z,17.43
2019-04-27T07:44:19.692Z,17.43
2019-04-27T07:46:46.312Z,17.40
2019-04-27T07:49:12.878Z,17.42
2019-04-27T07:51:39.494Z,17.46
2019-04-27T07:54:06.077Z,17.52
2019-04-27T07:56:32.694Z,17.62
2019-04-27T07:58:59.621Z,17.70
2019-04-27T08:01:26.335Z,17.79
2019-04-27T08:03:52.955Z,17.93
2019-04-27T08:06:19.537Z,18.04
2019-04-27T08:08:46.125Z,18.15
2019-04-27T08:11:12.700Z,18.25
2019-04-27T08:13:39.465Z,18.36
2019-04-27T08:16:06.163Z,18.48
2019-04-27T08:18:32.768Z,18.54
2019-04-27T08:20:59.337Z,18.58
2019-04-27T08:23:25.977Z,18.64
2019-04-27T08:25:52.540Z,18.66
2019-04-27T08:28:19.152Z,18.72
2019-04-27T08:30:45.729Z,18.77
2019-04-27T08:33:12.347Z,18.82
2019-04-27T08:35:40.588Z,18.85
2019-04-27T08:38:09.015Z,18.87
2019-04-27T08:40:35.778Z,18.97
2019-04-27T08:43:02.399Z,19.06
2019-04-27T08:45:29.327Z,19.13
2019-04-27T08:47:56.055Z,19.19
2019-04-27T08:50:22.642Z,19.30
2019-04-27T08:52:50.198Z,19.38
2019-04-27T08:55:17.011Z,19.40
2019-04-27T08:57:43.607Z,19.39
2019-04-27T09:00:10.184Z,19.37
2019-04-27T09:02:44.452Z,19.35
2019-04-27T09:05:05.106Z,19.36
2019-04-27T09:07:31.912Z,19.35
2019-04-27T09:09:59.620Z,19.33
2019-04-27T09:12:26.395Z,19.27
2019-04-27T09:14:52.992Z,19.19
2019-04-27T09:17:19.654Z,19.15
2019-04-27T09:19:46.270Z,19.14
2019-04-27T09:22:16.413Z,19.15
2019-04-27T09:24:42.273Z,19.09
2019-04-27T09:27:09.617Z,19.06
2019-04-27T09:29:36.422Z,19.03
2019-04-27T09:32:03.002Z,18.98
2019-04-27T09:34:29.616Z,18.91
2019-04-27T09:36:56.642Z,18.83
2019-04-27T09:39:23.369Z,18.75
2019-04-27T09:41:49.963Z,18.66
2019-04-27T09:44:16.570Z,18.57
2019-04-27T09:46:43.159Z,18.47
2019-04-27T09:49:12.064Z,18.42
2019-04-27T09:51:38.103Z,18.38
2019-04-27T09:54:05.858Z,18.32
2019-04-27T09:56:32.475Z,18.26
2019-04-27T09:58:59.087Z,18.18
2019-04-27T10:01:26.491Z,18.12
2019-04-27T10:03:54.003Z,18.11
2019-04-27T10:06:20.577Z,18.08
2019-04-27T10:08:47.173Z,18.06
2019-04-27T10:11:13.746Z,18.02
2019-04-27T10:13:40.355Z,18.00
2019-04-27T10:16:06.934Z,17.97
2019-04-27T10:18:33.510Z,17.95
2019-04-27T10:21:02.233Z,17.93
2019-04-27T10:23:28.498Z,17.88
2019-04-27T10:25:56.322Z,17.89
2019-04-27T10:28:22.925Z,17.84
2019-04-27T10:30:49.540Z,17.78
2019-04-27T10:33:16.227Z,17.69
2019-04-27T10:35:42.819Z,17.63
2019-04-27T10:38:09.385Z,17.54
2019-04-27T10:40:36.002Z,17.46
2019-04-27T10:43:02.597Z,17.42
2019-04-27T10:45:29.205Z,17.33
2019-04-27T10:47:56.270Z,17.27
2019-04-27T10:50:23.089Z,17.18
2019-04-27T10:52:53.568Z,17.12
2019-04-27T10:55:18.062Z,17.06
2019-04-27T10:57:44.636Z,17.03
2019-04-27T11:00:11.256Z,17.00
2019-04-27T11:02:37.840Z,16.99
2019-04-27T11:05:04.461Z,16.97
2019-04-27T11:07:31.051Z,16.95
2019-04-27T11:09:57.660Z,16.93
2019-04-27T11:12:24.240Z,16.91
2019-04-27T11:14:50.852Z,16.89
2019-04-27T11:17:17.426Z,16.88
2019-04-27T11:19:45.927Z,16.87
2019-04-27T11:22:12.494Z,16.84
2019-04-27T11:24:39.115Z,16.81
2019-04-27T11:27:05.888Z,16.80
2019-04-27T11:29:32.695Z,16.78
2019-04-27T11:31:59.324Z,16.76
2019-04-27T11:34:25.926Z,16.74
2019-04-27T11:36:52.510Z,16.71
2019-04-27T11:39:21.141Z,16.69
2019-04-27T11:41:47.421Z,16.69
2019-04-27T11:46:59.475Z,16.68
2019-04-27T11:49:26.091Z,16.71
2019-04-27T11:51:52.660Z,16.74
2019-04-27T11:54:19.235Z,16.79
2019-04-27T11:56:47.210Z,16.83
2019-04-27T11:59:14.014Z,16.90
2019-04-27T12:01:42.204Z,16.94
2019-04-27T12:04:08.778Z,17.00
2019-04-27T12:06:35.854Z,17.03
2019-04-27T12:09:02.541Z,17.05
2019-04-27T12:11:29.156Z,17.05
2019-04-27T12:13:56.256Z,17.05
2019-04-27T12:16:22.936Z,17.04
2019-04-27T12:18:49.513Z,17.01
2019-04-27T12:21:16.137Z,17.00
2019-04-27T12:23:42.703Z,16.97
2019-04-27T12:26:09.328Z,16.96
2019-04-27T12:28:35.907Z,16.94
2019-04-27T12:31:02.496Z,16.93
2019-04-27T12:33:29.070Z,16.90
2019-04-27T12:35:56.922Z,16.88
2019-04-27T12:38:23.651Z,16.88
2019-04-27T12:40:50.261Z,16.89
2019-04-27T12:43:16.840Z,16.90
2019-04-27T12:45:43.715Z,16.92
2019-04-27T12:48:11.029Z,16.93
2019-04-27T12:50:37.644Z,16.93
2019-04-27T12:53:04.214Z,16.92
2019-04-27T12:55:30.827Z,16.90
2019-04-27T12:57:57.415Z,16.89
2019-04-27T13:00:23.986Z,16.87
2019-04-27T13:02:50.585Z,16.83
2019-04-27T13:05:17.152Z,16.81
2019-04-27T13:07:43.752Z,16.78
2019-04-27T13:10:10.325Z,16.77
2019-04-27T13:12:36.928Z,16.78
2019-04-27T13:15:03.500Z,16.80
2019-04-27T13:17:30.103Z,16.84
2019-04-27T13:19:56.679Z,16.90
2019-04-27T13:22:23.291Z,16.95
2019-04-27T13:24:49.874Z,17.04
2019-04-27T13:27:16.728Z,17.13
2019-04-27T13:29:43.346Z,17.22
2019-04-27T13:32:09.958Z,17.31
2019-04-27T13:34:38.303Z,17.41
2019-04-27T13:37:05.039Z,17.50
2019-04-27T13:39:31.609Z,17.58
2019-04-27T13:41:58.203Z,17.63
2019-04-27T13:44:26.226Z,17.65
2019-04-27T13:46:52.993Z,17.66
2019-04-27T13:49:19.567Z,17.65
2019-04-27T13:51:46.183Z,17.64
2019-04-27T13:54:18.777Z,17.61
2019-04-27T13:56:41.111Z,17.61
2019-04-27T13:59:07.937Z,17.61
2019-04-27T14:01:34.534Z,17.67
2019-04-27T14:04:01.126Z,17.70
2019-04-27T14:06:27.717Z,17.72
2019-04-27T14:08:54.392Z,17.72
2019-04-27T14:11:20.973Z,17.73
2019-04-27T14:13:48.452Z,17.72
2019-04-27T14:16:15.242Z,17.73
2019-04-27T14:18:41.877Z,17.70
2019-04-27T14:21:09.443Z,17.68
2019-04-27T14:23:36.105Z,17.64
2019-04-27T14:26:02.674Z,17.61
2019-04-27T14:28:29.335Z,17.56
2019-04-27T14:30:56.054Z,17.51
2019-04-27T14:33:22.643Z,17.45
2019-04-27T14:35:49.980Z,17.38
2019-04-27T14:38:16.713Z,17.32
2019-04-27T14:40:43.293Z,17.29
2019-04-27T14:43:09.902Z,17.26
2019-04-27T14:45:38.303Z,17.28
2019-04-27T14:48:04.826Z,17.32
2019-04-27T14:50:31.413Z,17.36
2019-04-27T14:52:59.026Z,17.42
2019-04-27T14:55:25.788Z,17.47
2019-04-27T14:57:52.393Z,17.49
2019-04-27T15:00:19.273Z,17.48
2019-04-27T15:02:45.903Z,17.46
2019-04-27T15:05:12.480Z,17.42
2019-04-27T15:07:39.097Z,17.38
2019-04-27T15:10:05.667Z,17.35
2019-04-27T15:12:32.475Z,17.33
2019-04-27T15:15:01.224Z,17.33
2019-04-27T15:17:27.417Z,17.31
2019-04-27T15:19:54.007Z,17.32
2019-04-27T15:22:22.660Z,17.28
2019-04-27T15:25:07.796Z,17.28
2019-04-27T15:27:17.276Z,17.28
2019-04-27T15:29:43.896Z,17.30
2019-04-27T15:32:12.352Z,17.32
2019-04-27T15:34:40.048Z,17.33
2019-04-27T15:37:07.959Z,17.30
2019-04-27T15:39:34.721Z,17.26
2019-04-27T15:42:07.888Z,17.22
2019-04-27T15:44:29.624Z,17.18
2019-04-27T15:46:57.917Z,17.14
2019-04-27T15:49:24.700Z,17.13
2019-04-27T15:51:54.751Z,17.10
2019-04-27T15:54:22.359Z,17.08
2019-04-27T15:56:47.920Z,17.06
2019-04-27T15:59:14.519Z,17.04
2019-04-27T16:01:41.098Z,17.04
2019-04-27T16:04:11.177Z,17.03
2019-04-27T16:06:35.995Z,17.04
2019-04-27T16:09:02.855Z,17.03
2019-04-27T16:11:29.434Z,17.01
2019-04-27T16:13:56.044Z,17.00
2019-04-27T16:16:24.469Z,16.99
2019-04-27T16:18:51.033Z,16.96
2019-04-27T16:21:17.870Z,16.94
2019-04-27T16:23:45.934Z,16.91
2019-04-27T16:26:15.035Z,16.88
2019-04-27T16:28:43.076Z,16.86
2019-04-27T16:31:09.145Z,16.84
2019-04-27T16:33:35.724Z,16.83
2019-04-27T16:36:06.848Z,16.82
2019-04-27T16:38:33.650Z,16.80
2019-04-27T16:41:03.057Z,16.78
2019-04-27T16:43:30.226Z,16.76
2019-04-27T16:45:57.907Z,16.75
2019-04-27T16:48:28.013Z,16.75
2019-04-27T16:50:55.142Z,16.75
2019-04-27T16:53:20.580Z,16.73
2019-04-27T16:55:59.548Z,16.69
2019-04-27T16:58:17.771Z,16.65
2019-04-27T17:00:43.967Z,16.61
2019-04-27T17:03:10.545Z,16.55
2019-04-27T17:05:38.025Z,16.48
2019-04-27T17:08:04.812Z,16.44
2019-04-27T17:10:31.500Z,16.39
2019-04-27T17:12:59.121Z,16.35
2019-04-27T17:15:25.961Z,16.31
2019-04-27T17:17:52.518Z,16.26
2019-04-27T17:20:21.200Z,16.23
2019-04-27T17:22:50.205Z,16.21
2019-04-27T17:25:20.037Z,16.20
2019-04-27T17:27:44.046Z,16.18
2019-04-27T17:30:10.658Z,16.17
2019-04-27T17:32:38.846Z,16.16
2019-04-27T17:35:08.748Z,16.12
2019-04-27T17:37:34.031Z,16.09
2019-04-27T17:40:00.942Z,16.05
2019-04-27T17:42:30.634Z,16.03
2019-04-27T17:44:57.678Z,15.98
2019-04-27T17:47:26.598Z,15.95
2019-04-27T17:49:52.629Z,15.91
2019-04-27T17:52:19.239Z,15.87
2019-04-27T17:54:47.363Z,15.82
2019-04-27T17:57:14.136Z,15.78
2019-04-27T17:59:40.723Z,15.72
2019-04-27T18:02:08.886Z,15.69
2019-04-27T18:04:37.656Z,15.64
2019-04-27T18:07:03.966Z,15.62
2019-04-27T18:09:33.502Z,15.60
2019-04-27T18:11:58.886Z,15.58
2019-04-27T18:14:25.458Z,15.59
2019-04-27T18:16:52.068Z,15.58
2019-04-27T18:19:18.650Z,15.56
2019-04-27T18:21:45.283Z,15.54
2019-04-27T18:24:11.850Z,15.50
2019-04-27T18:26:48.812Z,15.47
2019-04-27T18:29:08.154Z,15.45
2019-04-27T18:31:34.834Z,15.45
2019-04-27T18:34:01.421Z,15.43
2019-04-27T18:36:29.504Z,15.42
2019-04-27T18:38:56.184Z,15.42
2019-04-27T18:41:22.803Z,15.41
2019-04-27T18:43:52.206Z,15.39
2019-04-27T18:46:21.964Z,15.39
2019-04-27T18:48:50.242Z,15.36
2019-04-27T18:51:14.353Z,15.33
2019-04-27T18:53:40.945Z,15.31
2019-04-27T18:56:08.069Z,15.31
2019-04-27T18:58:36.008Z,15.28
2019-04-27T19:01:02.591Z,15.28
2019-04-27T19:03:31.579Z,15.24
2019-04-27T19:05:58.242Z,15.21
2019-04-27T19:08:24.888Z,15.17
2019-04-27T19:10:51.461Z,15.14
2019-04-27T19:13:19.174Z,15.11
2019-04-27T19:15:46.014Z,15.07
2019-04-27T19:18:12.628Z,15.04
2019-04-27T19:20:39.212Z,15.04
2019-04-27T19:23:05.801Z,15.01
2019-04-27T19:25:32.373Z,15.02
2019-04-27T19:27:58.978Z,15.02
2019-04-27T19:30:25.547Z,15.02
2019-04-27T19:32:52.165Z,15.01
2019-04-27T19:35:19.999Z,15.01
2019-04-27T19:37:48.553Z,15.00
2019-04-27T19:40:15.072Z,15.01
2019-04-27T19:42:41.668Z,15.02
2019-04-27T19:45:08.246Z,14.99
2019-04-27T19:47:34.862Z,14.99
2019-04-27T19:50:01.452Z,14.99
2019-04-27T19:52:28.281Z,14.98
2019-04-27T19:54:54.889Z,14.98
2019-04-27T19:57:31.787Z,14.98
2019-04-27T19:59:49.790Z,14.97
2019-04-27T20:02:16.410Z,14.96
2019-04-27T20:04:43.023Z,14.98
2019-04-27T20:07:10.641Z,14.99
2019-04-27T20:09:37.370Z,14.99
2019-04-27T20:12:05.272Z,14.97
2019-04-27T20:14:32.298Z,14.97
2019-04-27T20:16:58.867Z,14.96
2019-04-27T20:19:25.483Z,14.98
2019-04-27T20:21:52.056Z,15.00
2019-04-27T20:24:18.658Z,15.01
2019-04-27T20:26:45.238Z,15.06
2019-04-27T20:29:11.961Z,15.11
2019-04-27T20:31:38.581Z,15.17
2019-04-27T20:34:05.205Z,15.21
2019-04-27T20:36:31.776Z,15.27
2019-04-27T20:38:58.380Z,15.31
2019-04-27T20:41:24.954Z,15.35
2019-04-27T20:43:51.547Z,15.39
2019-04-27T20:46:18.594Z,15.42
2019-04-27T20:48:45.407Z,15.46
2019-04-27T20:51:12.037Z,15.50
2019-04-27T20:53:38.639Z,15.50
2019-04-27T20:56:05.218Z,15.54
2019-04-27T20:58:31.833Z,15.54
2019-04-27T21:00:58.406Z,15.56
2019-04-27T21:03:25.118Z,15.57
2019-04-27T21:05:51.696Z,15.58
2019-04-27T21:08:18.311Z,15.60
2019-04-27T21:10:44.884Z,15.63
2019-04-27T21:13:11.461Z,15.64
2019-04-27T21:15:38.054Z,15.65
2019-04-27T21:18:04.627Z,15.65
2019-04-27T21:20:31.252Z,15.65
2019-04-27T21:22:57.870Z,15.64
2019-04-27T21:25:24.486Z,15.63
2019-04-27T21:27:51.401Z,15.63
2019-04-27T21:30:18.048Z,15.63
2019-04-27T21:32:44.616Z,15.63
2019-04-27T21:35:11.225Z,15.63
2019-04-27T21:37:37.800Z,15.64
2019-04-27T21:40:04.413Z,15.63
2019-04-27T21:42:31.004Z,15.63
2019-04-27T21:44:57.622Z,15.64
2019-04-27T21:47:24.190Z,15.64
2019-04-27T21:49:51.767Z,15.63
2019-04-27T21:52:18.570Z,15.61
2019-04-27T21:54:45.180Z,15.58
2019-04-27T21:57:12.760Z,15.55
2019-04-27T21:59:39.751Z,15.54
2019-04-27T22:02:06.386Z,15.53
2019-04-27T22:04:32.993Z,15.51
2019-04-27T22:07:01.249Z,15.51
2019-04-27T22:09:28.084Z,15.52
2019-04-27T22:11:54.654Z,15.51
2019-04-27T22:14:22.428Z,15.51
2019-04-27T22:16:49.001Z,15.51
2019-04-27T22:19:15.609Z,15.50
2019-04-27T22:21:42.210Z,15.49
2019-04-27T22:24:08.887Z,15.47
2019-04-27T22:26:35.527Z,15.45
2019-04-27T22:29:02.123Z,15.44
2019-04-27T22:31:28.723Z,15.41
2019-04-27T22:33:55.351Z,15.38
2019-04-27T22:36:21.964Z,15.36
2019-04-27T22:38:48.539Z,15.33
2019-04-27T22:41:15.149Z,15.31
2019-04-27T22:43:41.750Z,15.29
2019-04-27T22:46:08.430Z,15.29
2019-04-27T22:48:35.002Z,15.28
2019-04-27T22:51:01.695Z,15.26
2019-04-27T22:53:28.276Z,15.22
2019-04-27T22:55:55.059Z,15.20
2019-04-27T22:58:21.838Z,15.16
2019-04-27T23:00:48.435Z,15.09
2019-04-27T23:03:15.061Z,15.02
2019-04-27T23:05:42.986Z,14.95
2019-04-27T23:08:09.734Z,14.87
2019-04-27T23:10:36.361Z,14.79
2019-04-27T23:13:02.936Z,14.71
2019-04-27T23:15:30.636Z,14.63
2019-04-27T23:17:57.844Z,14.57
2019-04-27T23:20:24.419Z,14.52
2019-04-27T23:22:51.030Z,14.49
2019-04-27T23:25:17.645Z,14.45
2019-04-27T23:27:44.287Z,14.41
2019-04-27T23:30:11.369Z,14.38
2019-04-27T23:32:38.152Z,14.35
2019-04-27T23:35:04.732Z,14.32
2019-04-27T23:37:31.335Z,14.28
2019-04-27T23:39:57.913Z,14.23
2019-04-27T23:42:24.531Z,14.18
2019-04-27T23:44:51.099Z,14.13
2019-04-27T23:47:17.726Z,14.08
2019-04-27T23:49:44.308Z,14.03
2019-04-27T23:52:10.925Z,13.98
2019-04-27T23:54:37.505Z,13.93
2019-04-27T23:57:04.123Z,13.87
2019-04-27T23:59:31.374Z,13.82
